Terminal Aerodrome Forecast
Issued by NWS

Home | Current Version | Previous Version | Text Only | Print | Product List | Glossary On
Versions: 1 2 3 4 5 6 7 8 9 10 11 12 13
000
FTUS45 KBOI 311134
TAFMYL
TAF
KMYL 311134Z 3112/0112 VRB03KT P6SM BKN200
     FM312100 18008KT P6SM SCT080 BKN120
     FM010100 VRB03KT P6SM BKN080
     FM011000 33005KT P6SM -SHRA BKN050 OVC080=

USA.gov is the U.S. government's official web portal to all federal, state and local government web resources and services.